Current Weather

Provincetown Muni Airport

Provincetown Muni Airport, Massachusetts (KPVC)

Report from: Sunday, May 22, 2022 3:56 AM EDT
Current time: Sunday, May 22, 2022 4:41 AM EDT

Nearby weather
Weather history
Weather forecast

Temperature17.2°C (63.0°F)
Dew point15.6°C (60.1°F)
Winds 8 kts (4.1 m/s, 9.2 mph) South (170°)
Visibility10 mi. (16.1 km)
Clouds Sky clear
Altimeter29.99 in.Hg (1016 mB)
Relative humidity90 %
Density altitude424 ft. (129 m)
Sea-level pressure101.6 kPa (1016 mB, 29.99 in.Hg)
Remarks Fully automated report
Automated weather observing station with precipitation discriminator
Flight conditions Visual Meteorological Conditions
Raw dataKPVC 220756Z AUTO 17008KT 10SM CLR 17/16 A2999 RMK AO2 SLP156 T01720156
An error has occurred. This application may no longer respond until reloaded. Reload 🗙